createdAt,value
2018-04-28T00:01:40.062Z,99.90
2018-04-28T00:04:08.907Z,99.90
2018-04-28T00:06:37.744Z,99.90
2018-04-28T00:09:09.731Z,99.90
2018-04-28T00:11:39.428Z,99.90
2018-04-28T00:14:08.989Z,99.90
2018-04-28T00:16:46.434Z,99.90
2018-04-28T00:19:15.260Z,99.90
2018-04-28T00:25:01.122Z,99.90
2018-04-28T00:27:30.688Z,99.90
2018-04-28T00:30:09.978Z,99.90
2018-04-28T00:32:38.835Z,99.90
2018-04-28T00:35:11.606Z,99.90
2018-04-28T00:37:45.857Z,99.90
2018-04-28T00:40:18.674Z,99.90
2018-04-28T00:42:47.564Z,99.90
2018-04-28T00:45:27.159Z,99.90
2018-04-28T00:47:55.974Z,99.90
2018-04-28T00:53:23.880Z,99.90
2018-04-28T00:55:57.140Z,99.90
2018-04-28T00:58:28.904Z,99.90
2018-04-28T01:04:03.408Z,99.90
2018-04-28T01:06:32.253Z,99.90
2018-04-28T01:09:01.083Z,99.90
2018-04-28T01:11:32.349Z,99.90
2018-04-28T01:14:15.250Z,99.90
2018-04-28T01:16:47.834Z,99.90
2018-04-28T01:19:34.221Z,99.90
2018-04-28T01:22:05.408Z,99.90
2018-04-28T01:24:37.385Z,99.90
2018-04-28T01:27:13.014Z,99.90
2018-04-28T01:29:49.744Z,99.90
2018-04-28T01:32:23.246Z,99.90
2018-04-28T01:37:46.399Z,99.90
2018-04-28T01:41:45.847Z,99.90
2018-04-28T01:44:16.306Z,99.90
2018-04-28T01:46:45.166Z,99.90
2018-04-28T01:49:15.632Z,99.90
2018-04-28T01:51:57.222Z,99.90
2018-04-28T01:54:48.900Z,99.90
2018-04-28T01:57:19.131Z,99.90
2018-04-28T02:02:44.189Z,99.90
2018-04-28T02:05:14.969Z,99.90
2018-04-28T02:07:44.572Z,99.90
2018-04-28T02:10:13.419Z,99.90
2018-04-28T02:12:48.756Z,99.90
2018-04-28T02:15:24.136Z,99.90
2018-04-28T02:18:09.407Z,99.90
2018-04-28T02:20:53.112Z,99.90
2018-04-28T02:23:24.578Z,99.90
2018-04-28T02:25:58.063Z,99.90
2018-04-28T02:28:33.659Z,99.90
2018-04-28T02:31:05.256Z,99.90
2018-04-28T02:33:39.898Z,99.90
2018-04-28T02:39:08.839Z,99.90
2018-04-28T02:41:37.408Z,99.90
2018-04-28T02:44:06.236Z,99.90
2018-04-28T02:46:42.888Z,99.90
2018-04-28T02:49:23.404Z,99.90
2018-04-28T02:51:55.091Z,99.90
2018-04-28T02:54:26.322Z,99.90
2018-04-28T02:57:02.873Z,99.90
2018-04-28T03:02:34.391Z,99.90
2018-04-28T03:05:11.938Z,99.90
2018-04-28T03:07:44.500Z,99.90
2018-04-28T03:10:31.604Z,99.90
2018-04-28T03:13:00.488Z,99.90
2018-04-28T03:15:29.112Z,99.90
2018-04-28T03:18:00.142Z,99.90
2018-04-28T03:20:31.291Z,99.90
2018-04-28T03:23:00.752Z,99.90
2018-04-28T03:25:34.819Z,99.90
2018-04-28T03:28:08.661Z,99.90
2018-04-28T03:30:37.254Z,99.90
2018-04-28T03:33:10.433Z,99.90
2018-04-28T03:38:33.077Z,99.90
2018-04-28T03:41:27.455Z,99.90
2018-04-28T03:44:07.663Z,99.90
2018-04-28T03:46:37.810Z,99.90
2018-04-28T03:49:23.123Z,99.90
2018-04-28T03:52:13.407Z,99.90
2018-04-28T03:54:42.816Z,99.90
2018-04-28T04:00:21.274Z,99.90
2018-04-28T04:03:01.733Z,99.90
2018-04-28T04:08:29.072Z,99.90
2018-04-28T04:11:19.225Z,99.90
2018-04-28T04:16:48.122Z,99.90
2018-04-28T04:19:22.618Z,99.90
2018-04-28T04:21:58.730Z,99.90
2018-04-28T04:24:28.855Z,99.90
2018-04-28T04:26:58.386Z,99.90
2018-04-28T04:29:35.668Z,99.90
2018-04-28T04:32:07.180Z,99.90
2018-04-28T04:37:48.137Z,99.90
2018-04-28T04:43:34.772Z,99.90
2018-04-28T04:46:07.661Z,99.90
2018-04-28T04:52:13.456Z,99.90
2018-04-28T05:00:54.287Z,99.90
2018-04-28T05:03:44.692Z,99.90
2018-04-28T05:06:15.771Z,99.90
2018-04-28T05:08:55.960Z,99.90
2018-04-28T05:11:30.122Z,99.90
2018-04-28T05:14:32.361Z,99.90
2018-04-28T05:17:20.388Z,99.90
2018-04-28T05:22:56.737Z,99.90
2018-04-28T05:25:38.123Z,99.90
2018-04-28T05:28:25.458Z,99.90
2018-04-28T05:31:03.003Z,99.90
2018-04-28T05:33:43.332Z,99.90
2018-04-28T05:36:27.334Z,99.90
2018-04-28T05:39:07.867Z,99.90
2018-04-28T05:41:48.418Z,99.90
2018-04-28T05:44:26.666Z,99.90
2018-04-28T05:47:19.719Z,99.90
2018-04-28T05:50:14.860Z,99.90
2018-04-28T05:52:55.191Z,99.90
2018-04-28T05:55:27.281Z,99.90
2018-04-28T06:01:05.923Z,99.90
2018-04-28T06:03:40.123Z,99.90
2018-04-28T06:06:50.356Z,99.90
2018-04-28T06:12:29.152Z,99.90
2018-04-28T06:15:18.004Z,99.90
2018-04-28T06:17:56.259Z,99.90
2018-04-28T06:20:44.180Z,99.90
2018-04-28T06:23:13.087Z,99.90
2018-04-28T06:25:41.676Z,99.90
2018-04-28T06:28:10.283Z,99.90
2018-04-28T06:30:39.216Z,99.90
2018-04-28T06:33:08.581Z,99.90
2018-04-28T06:35:37.365Z,99.90
2018-04-28T06:38:05.971Z,99.90
2018-04-28T06:40:34.577Z,99.90
2018-04-28T06:43:03.927Z,99.90
2018-04-28T06:45:32.529Z,99.90
2018-04-28T06:48:01.117Z,99.90
2018-04-28T06:50:29.713Z,99.90
2018-04-28T06:52:59.033Z,99.90
2018-04-28T06:55:27.654Z,99.90
2018-04-28T06:57:56.216Z,99.90
2018-04-28T07:00:25.338Z,99.90
2018-04-28T07:02:53.947Z,99.90
2018-04-28T07:05:22.522Z,99.90
2018-04-28T07:07:51.095Z,99.90
2018-04-28T07:10:20.346Z,99.90
2018-04-28T07:12:48.914Z,99.90
2018-04-28T07:15:17.235Z,99.90
2018-04-28T07:17:46.322Z,99.90
2018-04-28T07:20:14.915Z,99.90
2018-04-28T07:22:43.272Z,99.90
2018-04-28T07:25:11.647Z,99.90
2018-04-28T07:27:40.741Z,99.90
2018-04-28T07:30:09.020Z,99.90
2018-04-28T07:32:38.117Z,96.80
2018-04-28T07:35:06.450Z,96.70
2018-04-28T07:37:34.820Z,95.20
2018-04-28T07:40:03.149Z,91.70
2018-04-28T07:42:31.517Z,91.30
2018-04-28T07:44:59.890Z,88.40
2018-04-28T07:47:28.593Z,85.00
2018-04-28T07:49:57.062Z,82.60
2018-04-28T07:52:26.136Z,78.40
2018-04-28T07:54:55.915Z,71.60
2018-04-28T07:57:25.057Z,71.50
2018-04-28T07:59:54.976Z,67.50
2018-04-28T08:02:23.390Z,67.40
2018-04-28T08:04:52.488Z,65.30
2018-04-28T08:07:21.672Z,66.00
2018-04-28T08:09:49.810Z,66.00
2018-04-28T08:12:18.197Z,66.20
2018-04-28T08:14:47.661Z,64.20
2018-04-28T08:17:16.023Z,64.10
2018-04-28T08:19:45.173Z,60.00
2018-04-28T08:22:13.517Z,60.00
2018-04-28T08:24:41.864Z,59.40
2018-04-28T08:27:10.204Z,58.30
2018-04-28T08:29:38.253Z,56.80
2018-04-28T08:32:06.625Z,57.10
2018-04-28T08:34:35.092Z,57.50
2018-04-28T08:37:04.215Z,56.00
2018-04-28T08:39:33.001Z,55.80
2018-04-28T08:42:01.755Z,55.40
2018-04-28T08:44:29.901Z,55.60
2018-04-28T08:46:59.134Z,55.30
2018-04-28T08:49:29.286Z,57.60
2018-04-28T08:51:58.444Z,57.60
2018-04-28T08:54:27.210Z,57.60
2018-04-28T08:56:55.839Z,56.30
2018-04-28T09:02:37.912Z,54.40
2018-04-28T09:05:06.903Z,53.90
2018-04-28T09:07:42.573Z,54.10
2018-04-28T09:10:12.887Z,52.60
2018-04-28T09:12:42.403Z,52.60
2018-04-28T09:15:12.678Z,53.20
2018-04-28T09:17:42.213Z,53.10
2018-04-28T09:20:11.681Z,53.60
2018-04-28T09:22:41.149Z,53.10
2018-04-28T09:25:10.681Z,52.70
2018-04-28T09:27:40.188Z,53.10
2018-04-28T09:30:09.676Z,52.50
2018-04-28T09:32:39.193Z,51.70
2018-04-28T09:35:08.689Z,51.90
2018-04-28T09:37:38.243Z,52.40
2018-04-28T09:40:07.728Z,50.40
2018-04-28T09:42:37.363Z,51.10
2018-04-28T09:45:06.869Z,52.40
2018-04-28T09:47:36.364Z,50.80
2018-04-28T09:50:05.885Z,49.50
2018-04-28T09:52:35.387Z,46.50
2018-04-28T09:55:04.241Z,48.70
2018-04-28T09:57:33.746Z,50.00
2018-04-28T10:00:13.985Z,49.90
2018-04-28T10:02:42.989Z,48.10
2018-04-28T10:05:12.488Z,46.80
2018-04-28T10:07:42.064Z,48.10
2018-04-28T10:10:11.591Z,49.10
2018-04-28T10:12:41.979Z,46.50
2018-04-28T10:15:11.596Z,46.50
2018-04-28T10:17:41.196Z,47.50
2018-04-28T10:20:10.801Z,48.30
2018-04-28T10:22:40.451Z,47.20
2018-04-28T10:25:10.730Z,46.00
2018-04-28T10:27:40.256Z,45.90
2018-04-28T10:30:09.788Z,47.40
2018-04-28T10:32:40.020Z,42.50
2018-04-28T10:35:09.511Z,42.50
2018-04-28T10:37:39.766Z,41.80
2018-04-28T10:40:09.267Z,41.80
2018-04-28T10:42:38.784Z,41.50
2018-04-28T10:45:07.996Z,41.00
2018-04-28T10:47:37.576Z,42.40
2018-04-28T10:50:08.041Z,40.50
2018-04-28T10:52:37.531Z,40.40
2018-04-28T10:55:07.040Z,40.80
2018-04-28T10:57:37.452Z,40.90
2018-04-28T11:00:06.962Z,40.20
2018-04-28T11:02:36.633Z,40.50
2018-04-28T11:05:06.174Z,38.50
2018-04-28T11:07:35.766Z,37.90
2018-04-28T11:10:05.991Z,38.90
2018-04-28T11:12:35.525Z,38.90
2018-04-28T11:15:04.688Z,38.90
2018-04-28T11:17:34.960Z,39.50
2018-04-28T11:20:04.207Z,39.50
2018-04-28T11:22:33.813Z,42.70
2018-04-28T11:25:03.777Z,40.40
2018-04-28T11:27:33.311Z,40.30
2018-04-28T11:30:02.867Z,38.40
2018-04-28T11:32:32.369Z,38.80
2018-04-28T11:35:01.868Z,37.50
2018-04-28T11:37:31.380Z,37.40
2018-04-28T11:40:00.980Z,36.70
2018-04-28T11:42:31.296Z,34.80
2018-04-28T11:45:01.555Z,34.70
2018-04-28T11:47:31.071Z,34.60
2018-04-28T11:50:00.601Z,35.70
2018-04-28T11:52:30.237Z,35.80
2018-04-28T11:54:59.711Z,36.90
2018-04-28T11:57:29.218Z,34.90
2018-04-28T11:59:58.752Z,33.80
2018-04-28T12:02:29.007Z,35.10
2018-04-28T12:04:58.576Z,35.00
2018-04-28T12:07:28.078Z,34.30
2018-04-28T12:09:57.584Z,32.70
2018-04-28T12:12:27.057Z,32.90
2018-04-28T12:14:56.553Z,32.50
2018-04-28T12:17:26.096Z,31.30
2018-04-28T12:19:55.671Z,31.90
2018-04-28T12:22:25.164Z,31.70
2018-04-28T12:24:54.668Z,31.00
2018-04-28T12:27:24.156Z,29.90
2018-04-28T12:29:53.708Z,30.00
2018-04-28T12:32:23.154Z,30.40
2018-04-28T12:34:53.526Z,32.90
2018-04-28T12:37:22.979Z,32.60
2018-04-28T12:39:53.238Z,32.00
2018-04-28T12:42:22.706Z,32.00
2018-04-28T12:44:52.981Z,31.70
2018-04-28T12:47:22.507Z,31.10
2018-04-28T12:49:52.033Z,31.30
2018-04-28T12:52:21.527Z,31.20
2018-04-28T12:54:51.041Z,29.70
2018-04-28T12:57:20.873Z,28.00
2018-04-28T12:59:50.552Z,28.70
2018-04-28T13:02:20.077Z,28.90
2018-04-28T13:04:50.324Z,28.50
2018-04-28T13:07:19.500Z,28.50
2018-04-28T13:09:49.761Z,29.20
2018-04-28T13:12:19.222Z,29.20
2018-04-28T13:14:48.770Z,29.10
2018-04-28T13:17:18.350Z,30.60
2018-04-28T13:19:48.029Z,28.10
2018-04-28T13:22:17.508Z,28.10
2018-04-28T13:24:46.984Z,29.00
2018-04-28T13:27:16.447Z,29.70
2018-04-28T13:29:46.029Z,28.90
2018-04-28T13:32:15.520Z,30.90
2018-04-28T13:34:45.012Z,28.00
2018-04-28T13:37:14.547Z,27.90
2018-04-28T13:39:44.108Z,27.00
2018-04-28T13:42:14.380Z,28.30
2018-04-28T13:44:43.852Z,28.30
2018-04-28T13:47:14.320Z,29.00
2018-04-28T13:49:43.842Z,28.70
2018-04-28T13:52:13.322Z,26.90
2018-04-28T13:54:43.227Z,26.40
2018-04-28T13:57:12.749Z,25.80
2018-04-28T13:59:42.255Z,26.50
2018-04-28T14:02:11.731Z,28.00
2018-04-28T14:04:41.268Z,28.00
2018-04-28T14:07:10.793Z,26.50
2018-04-28T14:09:40.405Z,25.60
2018-04-28T14:12:10.787Z,27.30
2018-04-28T14:14:40.043Z,27.30
2018-04-28T14:17:10.091Z,26.10
2018-04-28T14:19:39.607Z,26.10
2018-04-28T14:22:09.062Z,27.00
2018-04-28T14:24:39.333Z,26.80
2018-04-28T14:27:08.996Z,26.80
2018-04-28T14:29:38.226Z,28.00
2018-04-28T14:32:07.730Z,29.20
2018-04-28T14:34:37.226Z,29.90
2018-04-28T14:37:07.527Z,31.50
2018-04-28T14:39:37.026Z,31.40
2018-04-28T14:42:06.532Z,34.20
2018-04-28T14:44:36.840Z,32.70
2018-04-28T14:47:06.316Z,32.70
2018-04-28T14:49:35.853Z,32.20
2018-04-28T14:52:05.347Z,32.50
2018-04-28T14:54:34.993Z,34.20
2018-04-28T14:57:05.318Z,34.50
2018-04-28T14:59:34.848Z,34.50
2018-04-28T15:02:04.035Z,35.00
2018-04-28T15:04:33.528Z,35.30
2018-04-28T15:07:03.057Z,36.20
2018-04-28T15:09:32.554Z,35.90
2018-04-28T15:12:02.252Z,35.50
2018-04-28T15:14:32.527Z,36.00
2018-04-28T15:17:02.024Z,36.00
2018-04-28T15:19:32.488Z,35.80
2018-04-28T15:22:07.894Z,36.80
2018-04-28T15:24:37.776Z,35.30
2018-04-28T15:27:08.023Z,36.60
2018-04-28T15:29:37.520Z,36.60
2018-04-28T15:32:07.037Z,37.30
2018-04-28T15:34:36.525Z,36.70
2018-04-28T15:37:06.799Z,36.70
2018-04-28T15:39:36.410Z,36.70
2018-04-28T15:42:05.940Z,36.60
2018-04-28T15:44:35.722Z,37.10
2018-04-28T15:47:05.206Z,37.10
2018-04-28T15:49:34.752Z,37.80
2018-04-28T15:52:04.258Z,37.30
2018-04-28T15:54:33.787Z,38.20
2018-04-28T15:57:04.041Z,36.60
2018-04-28T15:59:33.611Z,36.50
2018-04-28T16:02:03.106Z,35.90
2018-04-28T16:04:32.579Z,38.30
2018-04-28T16:07:02.121Z,35.40
2018-04-28T16:09:31.359Z,35.90
2018-04-28T16:12:00.959Z,37.00
2018-04-28T16:14:30.461Z,35.70
2018-04-28T16:16:59.988Z,35.50
2018-04-28T16:19:29.532Z,35.50
2018-04-28T16:21:58.999Z,34.40
2018-04-28T16:24:28.571Z,33.70
2018-04-28T16:26:58.866Z,32.40
2018-04-28T16:29:28.394Z,32.40
2018-04-28T16:31:57.852Z,32.20
2018-04-28T16:34:27.348Z,31.80
2018-04-28T16:36:56.879Z,31.60
2018-04-28T16:39:26.369Z,32.70
2018-04-28T16:41:55.823Z,33.70
2018-04-28T16:44:26.155Z,32.70
2018-04-28T16:46:56.399Z,32.30
2018-04-28T16:49:25.919Z,32.20
2018-04-28T16:51:55.882Z,30.50
2018-04-28T16:54:25.686Z,29.90
2018-04-28T16:56:55.052Z,30.00
2018-04-28T16:59:24.535Z,30.00
2018-04-28T17:01:54.058Z,29.80
2018-04-28T17:04:23.517Z,29.70
2018-04-28T17:06:53.535Z,29.90
2018-04-28T17:09:24.554Z,29.80
2018-04-28T17:11:54.087Z,29.80
2018-04-28T17:14:24.451Z,29.80
2018-04-28T17:16:53.990Z,29.80
2018-04-28T17:19:23.758Z,29.90
2018-04-28T17:21:54.004Z,30.00
2018-04-28T17:24:23.560Z,30.00
2018-04-28T17:26:53.066Z,30.50
2018-04-28T17:29:23.366Z,32.30
2018-04-28T17:31:54.481Z,31.40
2018-04-28T17:34:24.112Z,31.40
2018-04-28T17:36:53.631Z,31.60
2018-04-28T17:39:23.141Z,31.60
2018-04-28T17:41:52.657Z,31.70
2018-04-28T17:44:22.915Z,32.50
2018-04-28T17:46:52.423Z,32.50
2018-04-28T17:49:22.118Z,32.70
2018-04-28T17:51:51.774Z,33.00
2018-04-28T17:54:21.299Z,33.20
2018-04-28T17:56:50.806Z,34.00
2018-04-28T17:59:20.338Z,35.10
2018-04-28T18:01:50.624Z,34.80
2018-04-28T18:04:20.225Z,34.80
2018-04-28T18:06:49.727Z,34.90
2018-04-28T18:09:19.252Z,37.30
2018-04-28T18:11:48.761Z,35.80
2018-04-28T18:14:18.268Z,35.70
2018-04-28T18:16:47.771Z,35.10
2018-04-28T18:19:18.046Z,39.60
2018-04-28T18:21:47.560Z,39.40
2018-04-28T18:24:17.063Z,38.90
2018-04-28T18:26:46.646Z,39.10
2018-04-28T18:29:16.184Z,38.70
2018-04-28T18:31:45.680Z,38.40
2018-04-28T18:34:15.175Z,38.30
2018-04-28T18:36:44.895Z,38.60
2018-04-28T18:39:14.451Z,40.50
2018-04-28T18:41:44.695Z,39.10
2018-04-28T18:44:14.199Z,38.90
2018-04-28T18:46:43.773Z,39.00
2018-04-28T18:49:13.277Z,39.40
2018-04-28T18:51:42.809Z,38.90
2018-04-28T18:54:13.995Z,38.80
2018-04-28T18:56:43.516Z,38.80
2018-04-28T18:59:13.027Z,38.90
2018-04-28T19:01:42.208Z,40.30
2018-04-28T19:04:11.749Z,40.00
2018-04-28T19:06:41.244Z,40.20
2018-04-28T19:09:10.544Z,40.90
2018-04-28T19:11:40.178Z,40.50
2018-04-28T19:14:10.278Z,38.90
2018-04-28T19:16:39.771Z,38.80
2018-04-28T19:19:09.288Z,39.50
2018-04-28T19:21:38.818Z,40.30
2018-04-28T19:24:09.164Z,40.00
2018-04-28T19:26:40.578Z,39.90
2018-04-28T19:29:10.160Z,40.80
2018-04-28T19:31:39.717Z,41.30
2018-04-28T19:34:09.653Z,41.50
2018-04-28T19:36:39.177Z,41.40
2018-04-28T19:39:08.333Z,41.70
2018-04-28T19:41:38.614Z,41.40
2018-04-28T19:44:07.893Z,41.30
2018-04-28T19:46:37.447Z,42.50
2018-04-28T19:49:07.011Z,42.70
2018-04-28T19:51:36.344Z,42.50
2018-04-28T19:54:05.852Z,42.30
2018-04-28T19:56:35.398Z,42.00
2018-04-28T19:59:05.688Z,42.00
2018-04-28T20:01:35.224Z,41.90
2018-04-28T20:04:05.496Z,42.50
2018-04-28T20:06:35.093Z,42.00
2018-04-28T20:09:03.908Z,42.90
2018-04-28T20:11:33.130Z,43.90
2018-04-28T20:14:02.618Z,44.00
2018-04-28T20:16:32.238Z,44.80
2018-04-28T20:19:02.039Z,45.50
2018-04-28T20:21:30.934Z,45.20
2018-04-28T20:27:00.458Z,46.30
2018-04-28T20:29:30.793Z,46.40
2018-04-28T20:32:00.300Z,46.40
2018-04-28T20:34:29.832Z,47.80
2018-04-28T20:37:00.132Z,48.20
2018-04-28T20:39:29.691Z,48.10
2018-04-28T20:41:59.172Z,48.60
2018-04-28T20:44:29.148Z,49.60
2018-04-28T20:46:58.640Z,49.60
2018-04-28T20:49:28.131Z,49.60
2018-04-28T20:51:57.706Z,49.90
2018-04-28T20:54:27.639Z,51.70
2018-04-28T20:56:57.212Z,51.70
2018-04-28T20:59:26.700Z,52.80
2018-04-28T21:01:56.219Z,54.70
2018-04-28T21:04:25.760Z,56.20
2018-04-28T21:06:55.280Z,57.30
2018-04-28T21:09:24.797Z,58.20
2018-04-28T21:11:54.355Z,59.00
2018-04-28T21:14:23.889Z,60.00
2018-04-28T21:16:53.361Z,61.30
2018-04-28T21:19:23.668Z,65.50
2018-04-28T21:21:53.280Z,65.60
2018-04-28T21:24:22.800Z,67.60
2018-04-28T21:26:53.068Z,74.80
2018-04-28T21:29:22.534Z,74.70
2018-04-28T21:31:52.799Z,81.50
2018-04-28T21:34:22.317Z,81.50
2018-04-28T21:36:51.568Z,85.20
2018-04-28T21:39:21.530Z,88.50
2018-04-28T21:41:51.025Z,88.40
2018-04-28T21:44:21.001Z,90.90
2018-04-28T21:46:50.585Z,92.30
2018-04-28T21:49:20.081Z,93.10
2018-04-28T21:51:49.290Z,95.50
2018-04-28T21:54:18.972Z,97.10
2018-04-28T21:56:48.475Z,97.90
2018-04-28T21:59:18.745Z,97.90
2018-04-28T22:01:49.024Z,99.30
2018-04-28T22:04:18.545Z,99.30
2018-04-28T22:06:48.072Z,99.90
2018-04-28T22:09:17.557Z,99.90
2018-04-28T22:11:47.069Z,99.90
2018-04-28T22:14:16.852Z,99.90
2018-04-28T22:16:46.323Z,99.90
2018-04-28T22:19:15.837Z,99.90
2018-04-28T22:21:46.103Z,99.90
2018-04-28T22:24:15.597Z,99.90
2018-04-28T22:26:45.071Z,99.90
2018-04-28T22:29:14.617Z,99.90
2018-04-28T22:31:43.841Z,99.90
2018-04-28T22:34:13.335Z,99.90
2018-04-28T22:36:42.832Z,99.90
2018-04-28T22:39:12.585Z,99.90
2018-04-28T22:41:42.854Z,99.90
2018-04-28T22:44:12.372Z,99.90
2018-04-28T22:46:41.862Z,99.90
2018-04-28T22:49:11.347Z,99.90
2018-04-28T22:51:41.920Z,99.90
2018-04-28T22:54:11.414Z,99.90
2018-04-28T22:56:40.907Z,99.90
2018-04-28T22:59:10.687Z,99.90
2018-04-28T23:01:40.197Z,99.90
2018-04-28T23:04:09.970Z,99.90
2018-04-28T23:06:39.724Z,99.90
2018-04-28T23:09:09.528Z,99.90
2018-04-28T23:11:39.812Z,99.90
2018-04-28T23:14:09.823Z,99.90
2018-04-28T23:16:39.582Z,99.90
2018-04-28T23:19:09.076Z,99.90
2018-04-28T23:21:38.907Z,99.90
2018-04-28T23:24:08.468Z,99.90
2018-04-28T23:26:38.272Z,99.90
2018-04-28T23:29:08.036Z,99.90
2018-04-28T23:31:38.607Z,99.90
2018-04-28T23:34:08.381Z,99.90
2018-04-28T23:36:38.530Z,99.90
2018-04-28T23:39:08.290Z,99.90
2018-04-28T23:41:38.097Z,99.90
2018-04-28T23:44:07.881Z,99.90
2018-04-28T23:46:37.733Z,99.90
2018-04-28T23:49:07.514Z,99.90
2018-04-28T23:51:37.321Z,99.90
2018-04-28T23:54:07.106Z,99.90
2018-04-28T23:56:37.631Z,99.90
2018-04-28T23:59:08.185Z,99.90
